Time;durP1;ratioP1;P1;durP2;ratioP2;P2;SDS_P1;SDS_P2;PMS_P1;PMS_P2;Temp;Humidity;BMP_temperature;BMP_pressure;BME280_temperature;BME280_humidity;BME280_pressure;Samples;Min_cycle;Max_cycle;Signal;HPM_P1;HPM_P2
2021/01/23 00:01:37;;;;;;;9.77;6.13;;;22.60;40.50;;;;;;5093497;28;20345;-52
2021/01/23 00:04:03;;;;;;;10.55;6.13;;;22.60;40.70;;;;;;5091772;28;20020;-52
2021/01/23 00:06:29;;;;;;;10.65;6.38;;;22.60;40.60;;;;;;5092755;28;20036;-52
2021/01/23 00:08:55;;;;;;;9.70;5.35;;;22.50;40.50;;;;;;5073370;28;20028;-52
2021/01/23 00:11:21;;;;;;;11.13;5.25;;;22.60;40.50;;;;;;5082844;28;20087;-51
2021/01/23 00:13:47;;;;;;;9.27;5.95;;;22.50;40.50;;;;;;5093613;28;20446;-52
2021/01/23 00:16:13;;;;;;;11.02;5.95;;;22.50;40.60;;;;;;5092954;28;20019;-52
2021/01/23 00:18:39;;;;;;;9.77;5.50;;;22.50;40.60;;;;;;5092662;28;20024;-52
2021/01/23 00:21:05;;;;;;;11.40;5.35;;;22.50;40.60;;;;;;5093142;28;20063;-52
2021/01/23 00:23:31;;;;;;;7.22;5.30;;;22.50;40.60;;;;;;5093324;28;20027;-52
2021/01/23 00:25:56;;;;;;;8.68;5.18;;;22.50;40.60;;;;;;5093616;28;20103;-53
2021/01/23 00:28:22;;;;;;;8.55;5.63;;;22.50;40.60;;;;;;5092183;28;20035;-52
2021/01/23 00:30:50;;;;;;;9.18;5.03;;;22.50;40.60;;;;;;5093814;28;20028;-52
2021/01/23 00:33:16;;;;;;;7.97;4.55;;;22.40;40.50;;;;;;5091958;28;20028;-53
2021/01/23 00:35:42;;;;;;;9.43;5.47;;;22.50;40.50;;;;;;5091420;28;20114;-57
2021/01/23 00:38:08;;;;;;;8.55;5.40;;;22.40;40.50;;;;;;5091024;28;20039;-57
2021/01/23 00:40:34;;;;;;;9.82;5.05;;;22.40;40.50;;;;;;5092331;28;20031;-57
2021/01/23 00:43:00;;;;;;;10.05;5.07;;;22.40;40.50;;;;;;5092108;28;20028;-57
2021/01/23 00:45:26;;;;;;;7.90;4.38;;;22.40;40.50;;;;;;5092309;28;20350;-57
2021/01/23 00:47:52;;;;;;;11.02;5.28;;;22.40;40.60;;;;;;5090978;28;20031;-57
2021/01/23 00:50:18;;;;;;;9.18;4.95;;;22.40;40.60;;;;;;5091080;28;20099;-57
2021/01/23 00:52:44;;;;;;;8.60;5.13;;;22.40;40.60;;;;;;5090295;28;20067;-57
2021/01/23 00:55:11;;;;;;;6.28;4.53;;;22.40;40.70;;;;;;5090595;28;20032;-57
2021/01/23 00:57:39;;;;;;;9.35;5.72;;;22.40;40.70;;;;;;5092657;28;20462;-52
2021/01/23 01:00:08;;;;;;;9.38;5.15;;;22.40;40.60;;;;;;5091576;28;20024;-52
2021/01/23 01:02:38;;;;;;;9.85;5.88;;;22.40;40.60;;;;;;5091408;28;20035;-53
2021/01/23 01:05:08;;;;;;;11.63;5.38;;;22.40;40.70;;;;;;5091570;28;20032;-53
2021/01/23 01:07:34;;;;;;;8.20;4.88;;;22.40;40.60;;;;;;5091917;28;20040;-53
2021/01/23 01:10:01;;;;;;;13.45;5.38;;;22.40;40.60;;;;;;5092187;28;20020;-53
2021/01/23 01:12:27;;;;;;;8.85;5.32;;;22.40;40.60;;;;;;5093356;28;20032;-53
2021/01/23 01:14:53;;;;;;;8.52;5.35;;;22.40;40.70;;;;;;5093008;28;20077;-53
2021/01/23 01:17:19;;;;;;;8.80;5.45;;;22.40;40.70;;;;;;5092598;28;20081;-53
2021/01/23 01:19:45;;;;;;;8.77;5.20;;;22.40;40.70;;;;;;5092019;28;20035;-53
2021/01/23 01:22:11;;;;;;;10.40;5.30;;;22.40;40.70;;;;;;5091251;28;20039;-53
2021/01/23 01:24:37;;;;;;;8.30;5.15;;;22.40;40.70;;;;;;5092832;28;20468;-53
2021/01/23 01:27:03;;;;;;;8.63;5.35;;;22.30;40.70;;;;;;5092147;28;20120;-53
2021/01/23 01:29:29;;;;;;;11.13;5.70;;;22.40;40.80;;;;;;5093025;28;20523;-53
2021/01/23 01:31:55;;;;;;;8.77;5.25;;;22.40;40.80;;;;;;5092381;28;20032;-53
2021/01/23 01:34:21;;;;;;;8.77;5.35;;;22.30;40.80;;;;;;5091691;28;20020;-53
2021/01/23 01:36:48;;;;;;;9.25;6.30;;;22.30;40.80;;;;;;5092266;28;20040;-53
2021/01/23 01:39:14;;;;;;;7.32;6.22;;;22.40;40.90;;;;;;5092341;28;20032;-53
2021/01/23 01:41:40;;;;;;;8.40;6.28;;;22.30;40.90;;;;;;5092293;28;20024;-54
2021/01/23 01:44:07;;;;;;;7.30;5.57;;;22.30;40.90;;;;;;5092106;28;20032;-53
2021/01/23 01:46:37;;;;;;;9.93;5.90;;;22.30;40.90;;;;;;5106833;28;20042;-52
2021/01/23 01:49:04;;;;;;;9.88;5.88;;;22.30;41.00;;;;;;5093754;28;20032;-52
2021/01/23 01:51:30;;;;;;;7.80;5.43;;;22.30;41.00;;;;;;5096270;28;20032;-52
2021/01/23 01:53:57;;;;;;;8.85;5.30;;;22.30;40.90;;;;;;5095799;28;20347;-52
2021/01/23 01:56:23;;;;;;;10.35;6.10;;;22.30;41.00;;;;;;5095978;28;20023;-52
2021/01/23 01:58:49;;;;;;;9.60;5.28;;;22.30;41.00;;;;;;5094624;28;20032;-52
2021/01/23 02:01:15;;;;;;;10.63;6.65;;;22.30;41.00;;;;;;5095331;28;20056;-52
2021/01/23 02:03:53;;;;;;;10.32;5.88;;;22.30;41.00;;;;;;5095560;28;20066;-51
2021/01/23 02:06:36;;;;;;;9.65;5.82;;;22.30;41.10;;;;;;5099835;28;20105;-52
2021/01/23 02:09:17;;;;;;;8.60;5.90;;;22.30;41.10;;;;;;5098110;28;20020;-53
2021/01/23 02:11:58;;;;;;;10.82;6.03;;;22.30;41.10;;;;;;5096200;28;20020;-53
2021/01/23 02:14:27;;;;;;;7.50;5.35;;;22.30;41.10;;;;;;5095268;28;20024;-52
2021/01/23 02:16:54;;;;;;;8.98;6.03;;;22.30;41.10;;;;;;5095737;28;20024;-52
2021/01/23 02:19:45;;;;;;;8.77;5.68;;;22.30;41.10;;;;;;5095449;28;20016;-51
2021/01/23 02:22:11;;;;;;;8.43;5.20;;;22.20;41.10;;;;;;5095285;28;20099;-51
2021/01/23 02:24:38;;;;;;;8.00;5.50;;;22.30;41.10;;;;;;5095016;28;20702;-52
2021/01/23 02:27:17;;;;;;;8.90;5.35;;;22.20;41.00;;;;;;5095411;28;20042;-52
2021/01/23 02:29:52;;;;;;;8.48;5.38;;;22.20;41.10;;;;;;5095656;28;20367;-52
2021/01/23 02:32:21;;;;;;;9.43;4.32;;;22.20;41.10;;;;;;5093836;28;20043;-52
2021/01/23 02:34:48;;;;;;;9.52;5.00;;;22.20;41.10;;;;;;5095421;28;20063;-52
2021/01/23 02:37:15;;;;;;;9.65;4.78;;;22.20;41.10;;;;;;5095541;28;20032;-52
2021/01/23 02:39:41;;;;;;;6.90;4.80;;;22.20;41.10;;;;;;5095508;28;20038;-52
2021/01/23 02:42:08;;;;;;;10.00;5.25;;;22.20;41.20;;;;;;5094885;28;20077;-53
2021/01/23 02:44:34;;;;;;;11.05;5.03;;;22.20;41.20;;;;;;5095039;28;20028;-53
2021/01/23 02:47:00;;;;;;;7.55;4.28;;;22.20;41.20;;;;;;5094240;28;20087;-53
2021/01/23 02:49:26;;;;;;;8.20;4.35;;;22.20;41.20;;;;;;5095121;28;20074;-53
2021/01/23 02:52:08;;;;;;;8.23;4.70;;;22.20;41.20;;;;;;5095109;28;20024;-53
2021/01/23 02:54:37;;;;;;;9.77;4.78;;;22.20;41.20;;;;;;5095140;28;20096;-53
2021/01/23 02:57:06;;;;;;;5.97;4.15;;;22.20;41.20;;;;;;5094342;28;20464;-53
2021/01/23 02:59:35;;;;;;;6.82;4.47;;;22.20;41.20;;;;;;5094485;28;20028;-53
2021/01/23 03:02:03;;;;;;;7.25;5.15;;;22.20;41.20;;;;;;5093721;28;20023;-53
2021/01/23 03:04:30;;;;;;;7.78;5.00;;;22.20;41.30;;;;;;5094893;28;20016;-53
2021/01/23 03:06:57;;;;;;;9.32;6.20;;;22.10;41.20;;;;;;5094888;28;20047;-52
2021/01/23 03:09:25;;;;;;;9.63;5.10;;;22.20;41.30;;;;;;5093184;28;20024;-53
2021/01/23 03:11:52;;;;;;;9.75;5.50;;;22.20;41.30;;;;;;5094765;28;20032;-53
2021/01/23 03:14:19;;;;;;;9.55;5.35;;;22.10;41.30;;;;;;5094239;28;20122;-53
2021/01/23 03:16:56;;;;;;;7.60;5.22;;;22.10;41.30;;;;;;5094439;28;20466;-53
2021/01/23 03:19:23;;;;;;;8.73;5.47;;;22.10;41.30;;;;;;5094197;28;20077;-53
2021/01/23 03:21:51;;;;;;;10.93;6.82;;;22.10;41.40;;;;;;5094033;28;20486;-53
2021/01/23 03:24:21;;;;;;;9.07;7.28;;;22.10;41.40;;;;;;5094552;28;20123;-53
2021/01/23 03:26:48;;;;;;;8.43;6.70;;;22.10;41.60;;;;;;5094142;28;20474;-53
2021/01/23 03:29:16;;;;;;;12.10;8.50;;;22.10;41.60;;;;;;5094455;28;20485;-53
2021/01/23 03:31:43;;;;;;;12.90;9.68;;;22.10;41.70;;;;;;5093947;28;20032;-53
2021/01/23 03:34:08;;;;;;;12.10;9.18;;;22.10;41.70;;;;;;5094147;28;20028;-53
2021/01/23 03:36:35;;;;;;;13.02;10.95;;;22.10;41.70;;;;;;5092805;28;20102;-52
2021/01/23 03:39:01;;;;;;;13.48;12.13;;;22.10;41.90;;;;;;5094369;28;20030;-53
2021/01/23 03:41:27;;;;;;;12.52;11.27;;;22.10;42.70;;;;;;5092973;28;20028;-53
2021/01/23 03:43:53;;;;;;;12.60;11.30;;;22.10;42.10;;;;;;5093322;28;20032;-53
2021/01/23 03:46:19;;;;;;;16.17;12.25;;;22.10;42.10;;;;;;5093020;28;20031;-53
2021/01/23 03:48:45;;;;;;;13.05;11.75;;;22.10;42.20;;;;;;5093854;28;20062;-53
2021/01/23 03:51:11;;;;;;;13.15;11.02;;;22.10;42.20;;;;;;5093831;28;20527;-53
2021/01/23 03:53:37;;;;;;;13.68;11.38;;;22.00;42.10;;;;;;5093645;28;20055;-53
2021/01/23 03:56:03;;;;;;;12.23;10.70;;;22.10;42.20;;;;;;5094017;28;20028;-53
2021/01/23 03:58:29;;;;;;;13.38;10.48;;;22.00;42.10;;;;;;5093325;28;20066;-51
2021/01/23 04:00:56;;;;;;;12.27;9.95;;;22.10;42.10;;;;;;5093155;28;20026;-51
2021/01/23 04:03:22;;;;;;;13.80;10.98;;;22.00;42.10;;;;;;5093825;28;20060;-53
2021/01/23 04:05:48;;;;;;;13.50;10.48;;;22.00;42.10;;;;;;5093731;28;20016;-53
2021/01/23 04:08:14;;;;;;;11.88;9.85;;;22.00;42.10;;;;;;5093776;28;20129;-53
2021/01/23 04:10:40;;;;;;;13.07;10.20;;;22.00;42.10;;;;;;5093292;28;20601;-53
2021/01/23 04:13:06;;;;;;;11.52;9.43;;;22.00;42.10;;;;;;5090187;28;20780;-53
2021/01/23 04:15:32;;;;;;;11.23;9.57;;;22.00;42.10;;;;;;5091923;28;20040;-52
2021/01/23 04:17:58;;;;;;;10.27;9.13;;;22.00;42.10;;;;;;5092882;28;20043;-53
2021/01/23 04:20:24;;;;;;;10.95;9.23;;;22.00;42.10;;;;;;5092916;28;20040;-53
2021/01/23 04:22:50;;;;;;;11.05;9.93;;;22.00;42.20;;;;;;5092650;28;20169;-53
2021/01/23 04:25:16;;;;;;;11.05;9.82;;;22.00;42.40;;;;;;5093126;28;20024;-53
2021/01/23 04:27:42;;;;;;;11.77;9.02;;;22.00;42.20;;;;;;5092021;28;20069;-53
2021/01/23 04:30:11;;;;;;;9.75;8.55;;;22.00;42.20;;;;;;5092436;28;20035;-57
2021/01/23 04:32:37;;;;;;;13.05;9.52;;;22.00;42.20;;;;;;5092019;28;20035;-57
2021/01/23 04:35:05;;;;;;;11.65;9.18;;;21.90;42.20;;;;;;5092234;28;20119;-57
2021/01/23 04:37:31;;;;;;;13.95;9.45;;;22.00;42.20;;;;;;5090280;28;20035;-58
2021/01/23 04:39:57;;;;;;;10.55;9.23;;;22.00;42.30;;;;;;5092071;28;20412;-57
2021/01/23 04:42:23;;;;;;;11.10;8.77;;;21.90;42.20;;;;;;5091197;28;20015;-57
2021/01/23 04:44:49;;;;;;;9.73;8.68;;;21.90;42.30;;;;;;5091500;28;20095;-57
2021/01/23 04:47:15;;;;;;;10.75;9.45;;;21.90;42.20;;;;;;5091900;28;20085;-57
2021/01/23 04:49:41;;;;;;;10.48;9.45;;;21.90;42.30;;;;;;5090763;28;20069;-57
2021/01/23 04:52:07;;;;;;;10.35;9.20;;;21.90;42.30;;;;;;5091781;28;20058;-58
2021/01/23 04:54:34;;;;;;;9.70;8.70;;;21.90;42.40;;;;;;5090550;28;20048;-57
2021/01/23 04:57:01;;;;;;;8.93;8.00;;;21.90;42.30;;;;;;5091938;28;20034;-58
2021/01/23 04:59:27;;;;;;;9.85;7.60;;;21.90;42.30;;;;;;5091831;28;20028;-57
2021/01/23 05:02:16;;;;;;;10.75;9.15;;;21.90;42.30;;;;;;5091508;28;20028;-57
2021/01/23 05:04:46;;;;;;;9.77;8.77;;;21.80;42.30;;;;;;5091868;28;20086;-58
2021/01/23 05:07:24;;;;;;;11.05;9.25;;;21.80;42.40;;;;;;5092119;28;20036;-57
2021/01/23 05:09:51;;;;;;;11.38;9.40;;;21.80;42.50;;;;;;5091582;28;20038;-57
2021/01/23 05:12:50;;;;;;;10.43;9.25;;;21.80;42.60;;;;;;5092203;28;20036;-57
2021/01/23 05:15:23;;;;;;;11.40;10.18;;;21.80;42.50;;;;;;5098171;28;20039;-57
2021/01/23 05:17:56;;;;;;;10.95;9.73;;;21.80;42.70;;;;;;5111628;28;20098;-57
2021/01/23 05:20:32;;;;;;;10.07;8.98;;;21.80;42.70;;;;;;5071572;28;20028;-57
2021/01/23 05:22:59;;;;;;;10.38;9.27;;;21.80;42.70;;;;;;5075342;28;20051;-57
2021/01/23 05:25:26;;;;;;;12.48;9.13;;;21.80;42.60;;;;;;5095368;28;20043;-57
2021/01/23 05:27:52;;;;;;;11.00;9.20;;;21.80;42.60;;;;;;5094959;28;20031;-57
2021/01/23 05:30:19;;;;;;;10.65;9.27;;;21.80;42.60;;;;;;5095726;28;20024;-57
2021/01/23 05:32:45;;;;;;;11.20;10.10;;;21.80;42.70;;;;;;5095192;28;20051;-57
2021/01/23 05:35:17;;;;;;;10.27;9.18;;;21.80;42.70;;;;;;5095311;28;20072;-57
2021/01/23 05:37:43;;;;;;;10.68;9.57;;;21.80;42.80;;;;;;5094831;28;20035;-57
2021/01/23 05:40:09;;;;;;;10.65;9.52;;;21.80;42.80;;;;;;5094880;28;20032;-57
2021/01/23 05:42:42;;;;;;;10.38;9.05;;;21.80;42.80;;;;;;5094791;28;20089;-57
2021/01/23 05:45:13;;;;;;;10.77;9.68;;;21.70;42.80;;;;;;5095088;28;20024;-57
2021/01/23 05:47:40;;;;;;;11.27;10.07;;;21.70;42.90;;;;;;5095380;28;20160;-58
2021/01/23 05:50:07;;;;;;;10.68;9.55;;;21.80;42.90;;;;;;5095230;28;20028;-58
2021/01/23 05:52:34;;;;;;;11.18;10.00;;;21.80;42.90;;;;;;5095184;28;20032;-57
2021/01/23 05:55:01;;;;;;;11.93;9.43;;;21.80;43.00;;;;;;5093727;28;20052;-57
2021/01/23 05:57:28;;;;;;;10.85;9.73;;;21.80;43.00;;;;;;5094910;28;20032;-56
2021/01/23 05:59:55;;;;;;;11.20;10.10;;;21.70;43.00;;;;;;5093707;28;20070;-57
2021/01/23 06:02:23;;;;;;;11.60;9.35;;;21.70;43.00;;;;;;5092173;28;20024;-60
2021/01/23 06:04:51;;;;;;;10.30;9.30;;;21.70;43.00;;;;;;5095043;28;20374;-56
2021/01/23 06:07:43;;;;;;;11.15;9.63;;;21.70;43.00;;;;;;5095907;28;20020;-56
2021/01/23 06:10:21;;;;;;;11.45;9.60;;;21.70;43.00;;;;;;5095744;28;20082;-56
2021/01/23 06:12:51;;;;;;;10.77;9.68;;;21.70;43.10;;;;;;5094547;28;20028;-56
2021/01/23 06:15:34;;;;;;;11.50;9.38;;;21.70;43.10;;;;;;5094838;28;20090;-56
2021/01/23 06:18:30;;;;;;;11.20;9.90;;;21.70;43.10;;;;;;5093022;28;20028;-56
2021/01/23 06:21:00;;;;;;;11.43;10.13;;;21.70;43.10;;;;;;5072035;28;20048;-56
2021/01/23 06:23:45;;;;;;;11.23;9.48;;;21.70;43.10;;;;;;5071615;28;20115;-60
2021/01/23 06:26:11;;;;;;;9.90;8.82;;;21.70;43.20;;;;;;5088050;28;20041;-56
2021/01/23 06:28:40;;;;;;;11.38;9.88;;;21.70;43.10;;;;;;5072578;28;20020;-60
2021/01/23 06:31:25;;;;;;;10.68;9.48;;;21.70;43.30;;;;;;5054018;28;20129;-61
2021/01/23 06:33:52;;;;;;;11.27;9.60;;;21.60;43.20;;;;;;5054077;28;20102;-62
2021/01/23 06:36:22;;;;;;;10.57;8.80;;;21.70;43.20;;;;;;5070886;28;20187;-61
2021/01/23 06:39:08;;;;;;;10.23;9.23;;;21.60;43.20;;;;;;5053381;28;20036;-57
2021/01/23 06:41:37;;;;;;;11.38;10.27;;;21.60;43.20;;;;;;5052534;28;20056;-60
2021/01/23 06:44:12;;;;;;;12.85;11.55;;;21.60;43.10;;;;;;5074523;28;20041;-60
2021/01/23 06:46:40;;;;;;;13.68;12.27;;;21.60;43.10;;;;;;5055129;28;20166;-60
2021/01/23 06:49:10;;;;;;;15.70;14.07;;;21.60;43.10;;;;;;5071836;28;20033;-60
2021/01/23 06:51:36;;;;;;;15.70;13.60;;;21.60;43.10;;;;;;5071542;28;20040;-59
2021/01/23 06:54:14;;;;;;;18.58;16.30;;;21.60;43.10;;;;;;5071876;28;20028;-60
2021/01/23 06:56:48;;;;;;;18.92;16.58;;;21.60;43.20;;;;;;5076571;28;20046;-61
2021/01/23 06:59:25;;;;;;;18.15;16.25;;;21.60;43.10;;;;;;5092817;28;20040;-60
2021/01/23 07:02:13;;;;;;;17.50;15.70;;;21.60;43.20;;;;;;5093638;28;20074;-59
2021/01/23 07:04:47;;;;;;;19.75;17.65;;;21.60;43.10;;;;;;5092486;28;20043;-60
2021/01/23 07:07:14;;;;;;;19.30;17.38;;;21.60;43.20;;;;;;5074674;28;20097;-60
2021/01/23 07:09:52;;;;;;;19.77;17.75;;;21.60;43.10;;;;;;5092256;28;20032;-60
2021/01/23 07:12:40;;;;;;;20.52;18.42;;;21.60;43.20;;;;;;5093836;28;20036;-60
2021/01/23 07:15:10;;;;;;;19.80;17.70;;;21.60;43.10;;;;;;5093390;28;20443;-56
2021/01/23 07:17:37;;;;;;;22.27;20.02;;;21.60;43.10;;;;;;5093399;28;20042;-56
2021/01/23 07:20:11;;;;;;;23.60;21.15;;;21.60;43.20;;;;;;5092785;28;20030;-56
2021/01/23 07:22:38;;;;;;;23.38;20.65;;;21.50;43.20;;;;;;5092444;28;20047;-55
2021/01/23 07:25:08;;;;;;;23.25;20.08;;;21.60;43.20;;;;;;5074807;28;20039;-56
2021/01/23 07:27:38;;;;;;;25.02;22.52;;;21.60;43.20;;;;;;5091525;28;20039;-56
2021/01/23 07:30:14;;;;;;;23.88;21.25;;;21.50;43.20;;;;;;5092929;28;20494;-56
2021/01/23 07:32:42;;;;;;;23.58;21.20;;;21.50;43.20;;;;;;5091718;28;20028;-59
2021/01/23 07:35:09;;;;;;;22.65;20.25;;;21.60;43.20;;;;;;5092940;28;20036;-60
2021/01/23 07:37:47;;;;;;;20.83;18.63;;;21.50;43.10;;;;;;5092741;28;20042;-61
2021/01/23 07:40:25;;;;;;;23.58;20.83;;;21.50;43.10;;;;;;5091829;28;20115;-60
2021/01/23 07:42:53;;;;;;;24.17;21.10;;;21.50;43.10;;;;;;5092169;28;20024;-60
2021/01/23 07:45:20;;;;;;;22.00;19.70;;;21.50;43.00;;;;;;5092603;28;20465;-60
2021/01/23 07:47:59;;;;;;;22.10;19.73;;;21.50;43.00;;;;;;5091602;28;20093;-61
2021/01/23 07:50:25;;;;;;;22.38;19.48;;;21.50;43.10;;;;;;5087679;28;20323;-59
2021/01/23 07:52:51;;;;;;;21.92;19.30;;;21.50;43.10;;;;;;5070107;28;20025;-57
2021/01/23 07:55:17;;;;;;;23.77;19.73;;;21.50;43.00;;;;;;5079008;28;20078;-61
2021/01/23 07:58:10;;;;;;;19.25;17.25;;;21.50;43.00;;;;;;5071559;28;20033;-60
2021/01/23 08:00:36;;;;;;;18.25;16.40;;;21.50;43.00;;;;;;5086291;28;20023;-60
2021/01/23 08:03:03;;;;;;;19.88;17.77;;;21.50;42.90;;;;;;5080157;28;20082;-60
2021/01/23 08:05:46;;;;;;;19.08;17.08;;;21.50;42.90;;;;;;5080891;28;20082;-60
2021/01/23 08:08:36;;;;;;;17.15;15.40;;;21.50;42.90;;;;;;5072993;28;20028;-60
2021/01/23 08:11:03;;;;;;;16.13;14.43;;;21.50;42.90;;;;;;5083511;28;20032;-60
2021/01/23 08:13:31;;;;;;;17.05;15.25;;;21.50;42.90;;;;;;5069607;28;20086;-60
2021/01/23 08:16:14;;;;;;;16.35;14.80;;;21.50;42.90;;;;;;5081715;28;20458;-60
2021/01/23 08:18:42;;;;;;;16.77;14.80;;;21.50;42.90;;;;;;5076499;28;20024;-60
2021/01/23 08:21:21;;;;;;;16.75;14.45;;;21.50;42.90;;;;;;5083262;28;20024;-60
2021/01/23 08:23:47;;;;;;;15.13;13.55;;;21.50;42.90;;;;;;5080332;28;20031;-60
2021/01/23 08:26:14;;;;;;;15.50;13.70;;;21.50;42.80;;;;;;5068347;28;20016;-60
2021/01/23 08:28:46;;;;;;;17.02;13.63;;;21.50;42.90;;;;;;5084511;28;20103;-60
2021/01/23 08:31:19;;;;;;;14.52;13.02;;;21.50;42.90;;;;;;5080848;28;20060;-60
2021/01/23 08:33:48;;;;;;;30.52;25.88;;;21.50;42.90;;;;;;5085828;28;20385;-64
2021/01/23 08:36:14;;;;;;;371.23;332.63;;;21.50;43.00;;;;;;5082429;28;20525;-62
2021/01/23 08:38:41;;;;;;;260.08;233.45;;;21.50;43.30;;;;;;5080095;28;20040;-60
2021/01/23 08:41:07;;;;;;;139.43;124.72;;;21.50;43.30;;;;;;5069156;28;20029;-58
2021/01/23 08:43:33;;;;;;;95.90;85.68;;;21.50;43.30;;;;;;5075827;28;20024;-54
2021/01/23 08:45:59;;;;;;;42.58;37.97;;;21.50;43.20;;;;;;5078540;28;20119;-51
2021/01/23 08:48:25;;;;;;;49.92;44.55;;;21.50;42.80;;;;;;5072792;28;20668;-51
2021/01/23 08:50:51;;;;;;;52.85;47.15;;;21.40;42.80;;;;;;5076019;28;20029;-52
2021/01/23 08:53:17;;;;;;;48.72;43.42;;;21.40;42.90;;;;;;5078510;28;20025;-52
2021/01/23 08:55:43;;;;;;;40.40;34.78;;;21.40;43.00;;;;;;5077955;28;20028;-52
2021/01/23 08:58:09;;;;;;;37.78;32.83;;;21.40;42.90;;;;;;5084235;28;20035;-54
2021/01/23 09:00:35;;;;;;;36.65;32.40;;;21.40;43.10;;;;;;5077900;28;20039;-60
2021/01/23 09:03:02;;;;;;;41.05;34.70;;;21.30;43.40;;;;;;5102141;28;20028;-54
2021/01/23 09:05:29;;;;;;;73.30;63.28;;;21.40;43.60;;;;;;5073643;28;20025;-55
2021/01/23 09:07:55;;;;;;;40.78;35.13;;;21.30;43.60;;;;;;5085778;28;20032;-54
2021/01/23 09:10:21;;;;;;;18.52;15.95;;;21.40;43.40;;;;;;5078044;28;20028;-56
2021/01/23 09:12:48;;;;;;;30.17;23.60;;;21.30;43.00;;;;;;5082864;28;20039;-62
2021/01/23 09:15:15;;;;;;;28.73;24.30;;;21.30;43.20;;;;;;5085545;28;20632;-61
2021/01/23 09:17:41;;;;;;;16.40;11.82;;;21.30;43.20;;;;;;5074318;28;20032;-61
2021/01/23 09:20:08;;;;;;;40.80;36.30;;;21.30;42.90;;;;;;5078187;28;20040;-60
2021/01/23 09:22:35;;;;;;;69.15;61.50;;;21.30;43.00;;;;;;5081314;28;20466;-60
2021/01/23 09:25:02;;;;;;;21.15;14.13;;;21.30;43.00;;;;;;5078283;28;20072;-61
2021/01/23 09:27:31;;;;;;;23.43;19.63;;;21.30;42.50;;;;;;5075666;28;20031;-61
2021/01/23 09:29:57;;;;;;;24.20;20.60;;;21.30;42.70;;;;;;5076179;28;20056;-61
2021/01/23 09:32:23;;;;;;;20.90;14.57;;;21.30;42.70;;;;;;5061892;28;20033;-61
2021/01/23 09:34:49;;;;;;;18.30;13.38;;;21.30;42.60;;;;;;5081733;28;20091;-61
2021/01/23 09:37:16;;;;;;;35.33;28.58;;;21.30;42.90;;;;;;5084587;28;20064;-61
2021/01/23 09:39:42;;;;;;;31.25;25.35;;;21.30;42.90;;;;;;5082095;28;20016;-62
2021/01/23 09:42:08;;;;;;;15.20;11.77;;;21.30;42.70;;;;;;5077207;28;20501;-55
2021/01/23 09:44:35;;;;;;;43.63;35.00;;;21.30;42.40;;;;;;5077013;28;20028;-57
2021/01/23 09:47:01;;;;;;;23.75;16.60;;;21.30;42.60;;;;;;5075458;28;20122;-62
2021/01/23 09:49:27;;;;;;;14.23;11.70;;;21.30;42.60;;;;;;5080918;28;20032;-62
2021/01/23 09:51:53;;;;;;;13.60;4.10;;;21.30;42.60;;;;;;5082870;28;20469;-57
2021/01/23 09:54:19;;;;;;;8.63;3.65;;;21.30;42.50;;;;;;5080174;28;20029;-61
2021/01/23 09:56:45;;;;;;;7.50;2.67;;;21.30;42.50;;;;;;5082306;28;20028;-61
2021/01/23 09:59:13;;;;;;;4.53;2.75;;;21.20;42.30;;;;;;5064315;28;20055;-68
2021/01/23 10:01:39;;;;;;;6.70;2.10;;;21.30;42.40;;;;;;5078307;28;20035;-67
2021/01/23 10:04:05;;;;;;;4.15;2.45;;;21.30;42.30;;;;;;5080267;28;20039;-67
2021/01/23 10:06:31;;;;;;;11.40;3.17;;;21.30;42.30;;;;;;5073527;28;20024;-67
2021/01/23 10:08:57;;;;;;;4.60;2.72;;;21.30;42.30;;;;;;5080396;28;20141;-66
2021/01/23 10:11:23;;;;;;;5.82;2.85;;;21.30;42.30;;;;;;5079986;28;20016;-66
2021/01/23 10:13:49;;;;;;;7.90;2.60;;;21.30;42.50;;;;;;5086591;28;20441;-67
2021/01/23 10:16:15;;;;;;;7.25;2.63;;;21.30;42.10;;;;;;5069972;28;20391;-57
2021/01/23 10:18:41;;;;;;;6.53;2.70;;;21.40;42.20;;;;;;5074020;28;20033;-62
2021/01/23 10:21:09;;;;;;;7.40;2.90;;;21.40;42.20;;;;;;5075746;28;20102;-63
2021/01/23 10:23:35;;;;;;;3.78;1.70;;;21.40;42.20;;;;;;5084299;28;20039;-62
2021/01/23 10:26:01;;;;;;;3.95;1.45;;;21.50;41.80;;;;;;5085737;28;20032;-62
2021/01/23 10:28:27;;;;;;;7.28;1.80;;;21.50;41.50;;;;;;5082981;28;20029;-62
2021/01/23 10:30:53;;;;;;;5.47;1.83;;;21.50;41.50;;;;;;5070617;28;20039;-63
2021/01/23 10:33:19;;;;;;;3.95;1.60;;;21.60;41.40;;;;;;5082337;28;20154;-56
2021/01/23 10:35:47;;;;;;;3.13;1.63;;;21.60;41.40;;;;;;5090839;28;20185;-56
2021/01/23 10:38:13;;;;;;;3.83;1.83;;;21.70;41.50;;;;;;5094499;28;20538;-62
2021/01/23 10:40:43;;;;;;;3.22;1.40;;;21.80;41.50;;;;;;5095333;28;20073;-62
2021/01/23 10:43:11;;;;;;;5.07;1.95;;;21.80;41.30;;;;;;5093282;28;20028;-57
2021/01/23 10:45:38;;;;;;;3.42;1.40;;;21.90;41.20;;;;;;5093188;28;20461;-61
2021/01/23 10:48:08;;;;;;;4.90;1.63;;;21.90;40.90;;;;;;5091960;28;20020;-57
2021/01/23 10:50:34;;;;;;;3.72;1.58;;;22.00;41.20;;;;;;5094719;28;20032;-57
2021/01/23 10:53:01;;;;;;;15.10;11.68;;;22.00;41.10;;;;;;5094506;28;20081;-57
2021/01/23 10:55:27;;;;;;;12.48;9.35;;;22.00;41.00;;;;;;5094517;28;20043;-57
2021/01/23 10:57:53;;;;;;;12.88;10.45;;;22.10;41.10;;;;;;5093736;28;20016;-57
2021/01/23 11:00:20;;;;;;;10.30;8.65;;;22.20;40.90;;;;;;5093501;28;20473;-57
2021/01/23 11:02:46;;;;;;;8.00;4.57;;;22.20;41.00;;;;;;5093162;28;20043;-58
2021/01/23 11:05:12;;;;;;;5.63;1.80;;;22.40;40.80;;;;;;5093914;28;20024;-56
2021/01/23 11:07:38;;;;;;;7.80;4.10;;;22.40;40.60;;;;;;5093533;28;20034;-58
2021/01/23 11:10:05;;;;;;;41.45;35.90;;;22.60;40.60;;;;;;5093894;28;20106;-63
2021/01/23 11:12:33;;;;;;;25.63;21.38;;;22.60;40.50;;;;;;5092229;28;20067;-61
2021/01/23 11:14:59;;;;;;;38.75;34.10;;;22.70;40.50;;;;;;5094363;28;20471;-62
2021/01/23 11:17:25;;;;;;;21.92;16.88;;;22.90;40.50;;;;;;5092973;28;20393;-56
2021/01/23 11:19:51;;;;;;;14.73;12.23;;;23.00;40.50;;;;;;5092535;28;20048;-57
2021/01/23 11:22:18;;;;;;;9.32;7.90;;;23.10;40.40;;;;;;5093244;28;20035;-60
2021/01/23 11:24:44;;;;;;;10.18;8.13;;;23.20;40.10;;;;;;5092091;28;20073;-59
2021/01/23 11:27:10;;;;;;;15.52;11.82;;;23.40;40.20;;;;;;5092148;28;20024;-60
2021/01/23 11:29:36;;;;;;;13.55;10.57;;;23.50;40.50;;;;;;5092330;28;20050;-61
2021/01/23 11:32:02;;;;;;;13.40;9.77;;;23.70;40.60;;;;;;5093593;28;20037;-62
2021/01/23 11:34:28;;;;;;;8.63;7.07;;;24.00;40.50;;;;;;5091423;28;20202;-60
2021/01/23 11:36:55;;;;;;;10.75;8.13;;;24.30;40.10;;;;;;5092809;28;20126;-61
2021/01/23 11:39:21;;;;;;;12.20;8.48;;;24.70;39.80;;;;;;5093207;28;20604;-61
2021/01/23 11:41:47;;;;;;;6.43;4.90;;;25.10;39.40;;;;;;5091582;28;20103;-61
2021/01/23 11:44:13;;;;;;;9.13;5.93;;;25.60;38.60;;;;;;5091235;28;20024;-61
2021/01/23 11:46:39;;;;;;;3.55;2.60;;;26.20;37.60;;;;;;5092491;28;20031;-61
2021/01/23 11:49:05;;;;;;;4.35;2.33;;;26.70;36.20;;;;;;5074696;28;20496;-68
2021/01/23 11:51:32;;;;;;;5.90;4.35;;;27.00;35.10;;;;;;5093523;28;20470;-67
2021/01/23 11:53:59;;;;;;;3.35;2.20;;;27.30;34.90;;;;;;5099544;28;20028;-67
2021/01/23 11:56:27;;;;;;;3.45;2.53;;;27.40;34.00;;;;;;5088779;28;20036;-65
2021/01/23 11:58:53;;;;;;;4.05;2.63;;;27.40;33.80;;;;;;5113013;28;20414;-60
2021/01/23 12:01:20;;;;;;;2.90;2.00;;;27.30;33.70;;;;;;5095715;28;20095;-60
2021/01/23 12:03:46;;;;;;;4.55;2.40;;;27.20;33.80;;;;;;5092457;28;20066;-59
2021/01/23 12:06:12;;;;;;;3.35;2.42;;;27.10;33.70;;;;;;5092066;28;20055;-63
2021/01/23 12:08:38;;;;;;;4.40;2.20;;;26.90;34.20;;;;;;5091719;28;20024;-57
2021/01/23 12:11:04;;;;;;;5.07;2.20;;;26.70;34.60;;;;;;5092956;28;20023;-58
2021/01/23 12:13:30;;;;;;;5.40;3.10;;;26.50;35.20;;;;;;5091524;28;20031;-66
2021/01/23 12:15:56;;;;;;;5.35;1.98;;;26.10;35.40;;;;;;5091512;28;20113;-62
2021/01/23 12:18:22;;;;;;;3.28;1.33;;;25.90;35.70;;;;;;5092539;28;20468;-60
2021/01/23 12:20:48;;;;;;;4.15;1.20;;;25.60;36.00;;;;;;5091182;28;20347;-61
2021/01/23 12:23:16;;;;;;;5.75;2.50;;;25.40;35.90;;;;;;5090846;28;20028;-67
2021/01/23 12:25:43;;;;;;;8.20;2.13;;;25.10;36.20;;;;;;5091281;28;20039;-62
2021/01/23 12:28:09;;;;;;;6.90;1.95;;;24.70;36.50;;;;;;5090881;28;20478;-60
2021/01/23 12:30:34;;;;;;;4.53;2.08;;;24.50;36.90;;;;;;5079324;28;20035;-69
2021/01/23 12:33:00;;;;;;;4.53;2.40;;;24.30;37.40;;;;;;5091151;28;20032;-67
2021/01/23 12:35:27;;;;;;;4.95;2.30;;;24.20;37.80;;;;;;5089731;28;20478;-70
2021/01/23 12:37:58;;;;;;;4.82;2.42;;;24.10;37.80;;;;;;5091049;28;20049;-64
2021/01/23 12:40:25;;;;;;;11.05;4.00;;;24.10;38.30;;;;;;5091174;28;20149;-65
2021/01/23 12:42:51;;;;;;;6.18;3.72;;;24.20;38.50;;;;;;5091274;28;20445;-63
2021/01/23 12:45:17;;;;;;;8.80;5.95;;;24.20;39.00;;;;;;5091282;28;20082;-65